Time,TemperatureF,DewpointF,PressureIn,WindDirection,WindDirectionDegrees,WindSpeedMPH,WindSpeedGustMPH,Humidity,HourlyPrecipIn,Conditions,Clouds,dailyrainin,SoftwareType,DateUTC
2013-01-18 00:00:00,16.0,-2.1,30.29,NW,307,4.0,8.0,44,0.00,,,-99.99,Weather View 32 v60,2013-01-18 05:00:00,
2013-01-18 00:05:00,15.8,-2.3,30.29,WNW,302,3.0,8.0,44,0.00,,,-99.99,Weather View 32 v60,2013-01-18 05:05:00,
2013-01-18 00:10:00,15.6,-2.4,30.29,WNW,293,4.0,8.0,44,0.00,,,-99.99,Weather View 32 v60,2013-01-18 05:10:00,
2013-01-18 00:15:00,15.4,-2.6,30.29,WNW,291,4.0,8.0,44,0.00,,,-99.99,Weather View 32 v60,2013-01-18 05:15:00,
2013-01-18 00:25:00,15.3,-2.7,30.29,WNW,290,3.0,8.0,44,0.00,,,-99.99,Weather View 32 v60,2013-01-18 05:25:00,
2013-01-18 00:35:00,14.9,-3.1,30.29,WNW,290,0.0,7.0,44,0.00,,,-99.99,Weather View 32 v60,2013-01-18 05:35:00,
2013-01-18 00:40:00,14.9,-3.1,30.29,West,272,3.0,6.0,44,0.00,,,-99.99,Weather View 32 v60,2013-01-18 05:40:00,
2013-01-18 00:45:00,14.7,-3.2,30.29,West,259,4.0,6.0,44,0.00,,,-99.99,Weather View 32 v60,2013-01-18 05:45:00,
2013-01-18 00:50:00,14.5,-3.4,30.29,WSW,250,4.0,6.0,44,0.00,,,-99.99,Weather View 32 v60,2013-01-18 05:50:00,
2013-01-18 00:55:00,14.5,-3.4,30.29,West,277,0.0,6.0,44,0.00,,,-99.99,Weather View 32 v60,2013-01-18 05:55:00,
2013-01-18 01:00:00,14.4,-3.6,30.29,West,264,3.0,6.0,44,0.00,,,-99.99,Weather View 32 v60,2013-01-18 06:00:00,
2013-01-18 01:10:00,14.2,-3.7,30.29,West,266,0.0,5.0,44,0.00,,,-99.99,Weather View 32 v60,2013-01-18 06:10:00,
2013-01-18 01:20:00,13.8,-4.1,30.29,WSW,256,0.0,5.0,44,0.00,,,-99.99,Weather View 32 v60,2013-01-18 06:20:00,
2013-01-18 01:25:00,13.6,-4.2,30.31,WSW,257,0.0,4.0,44,0.00,,,-99.99,Weather View 32 v60,2013-01-18 06:25:00,
2013-01-18 01:30:00,13.5,-4.4,30.31,WSW,257,0.0,4.0,44,0.00,,,-99.99,Weather View 32 v60,2013-01-18 06:30:00,
2013-01-18 01:40:00,13.1,-4.7,30.31,WSW,257,0.0,4.0,44,0.00,,,-99.99,Weather View 32 v60,2013-01-18 06:40:00,
2013-01-18 01:45:00,12.7,-5.1,30.31,WSW,257,0.0,4.0,44,0.00,,,-99.99,Weather View 32 v60,2013-01-18 06:45:00,
2013-01-18 01:55:00,12.2,-5.5,30.31,WSW,257,0.0,4.0,44,0.00,,,-99.99,Weather View 32 v60,2013-01-18 06:55:00,
2013-01-18 02:00:00,12.0,-5.7,30.31,WSW,257,0.0,4.0,44,0.00,,,-99.99,Weather View 32 v60,2013-01-18 07:00:00,
2013-01-18 02:05:00,11.8,-5.9,30.31,WSW,257,0.0,3.0,44,0.00,,,-99.99,Weather View 32 v60,2013-01-18 07:05:00,
2013-01-18 02:10:00,11.7,-6.0,30.31,WSW,257,0.0,0.0,44,0.00,,,-99.99,Weather View 32 v60,2013-01-18 07:10:00,
2013-01-18 02:15:00,11.3,-6.4,30.31,WSW,257,0.0,0.0,44,0.00,,,-99.99,Weather View 32 v60,2013-01-18 07:15:00,
2013-01-18 02:20:00,11.3,-6.4,30.31,WSW,257,0.0,0.0,44,0.00,,,-99.99,Weather View 32 v60,2013-01-18 07:20:00,
2013-01-18 02:25:00,11.1,-6.5,30.34,WSW,257,0.0,0.0,44,0.00,,,-99.99,Weather View 32 v60,2013-01-18 07:25:00,
2013-01-18 02:30:00,10.9,-6.7,30.34,WSW,257,0.0,0.0,44,0.00,,,-99.99,Weather View 32 v60,2013-01-18 07:30:00,
2013-01-18 02:35:00,10.9,-6.7,30.34,WSW,257,0.0,0.0,44,0.00,,,-99.99,Weather View 32 v60,2013-01-18 07:35:00,
2013-01-18 02:40:00,10.8,-6.9,30.34,WSW,257,0.0,0.0,44,0.00,,,-99.99,Weather View 32 v60,2013-01-18 07:40:00,
2013-01-18 02:50:00,10.6,-7.0,30.34,WSW,257,0.0,0.0,44,0.00,,,-99.99,Weather View 32 v60,2013-01-18 07:50:00,
2013-01-18 02:58:00,10.4,-7.2,30.34,WSW,257,0.0,0.0,44,0.00,,,-99.99,Weather View 32 v60,2013-01-18 07:58:00,
2013-01-18 03:05:00,10.2,-7.4,30.34,WSW,251,0.0,0.0,44,0.00,,,-99.99,Weather View 32 v60,2013-01-18 08:05:00,
2013-01-18 03:10:00,10.0,-7.5,30.34,West,268,0.0,0.0,44,0.00,,,-99.99,Weather View 32 v60,2013-01-18 08:10:00,
2013-01-18 03:15:00,10.0,-7.5,30.34,West,268,0.0,0.0,44,0.00,,,-99.99,Weather View 32 v60,2013-01-18 08:15:00,
2013-01-18 03:20:00,9.9,-7.7,30.34,West,268,0.0,0.0,44,0.00,,,-99.99,Weather View 32 v60,2013-01-18 08:20:00,
2013-01-18 03:30:00,9.7,-7.9,30.34,West,267,0.0,0.0,44,0.00,,,-99.99,Weather View 32 v60,2013-01-18 08:30:00,
2013-01-18 03:35:00,9.5,-8.0,30.34,West,265,0.0,0.0,44,0.00,,,-99.99,Weather View 32 v60,2013-01-18 08:35:00,
2013-01-18 03:40:00,9.3,-8.2,30.34,West,264,0.0,0.0,44,0.00,,,-99.99,Weather View 32 v60,2013-01-18 08:40:00,
2013-01-18 03:50:00,9.1,-8.3,30.34,West,264,0.0,0.0,44,0.00,,,-99.99,Weather View 32 v60,2013-01-18 08:50:00,
2013-01-18 03:55:00,9.0,-8.5,30.34,West,264,0.0,0.0,44,0.00,,,-99.99,Weather View 32 v60,2013-01-18 08:55:00,
2013-01-18 04:00:00,8.8,-8.7,30.34,West,264,0.0,0.0,44,0.00,,,-99.99,Weather View 32 v60,2013-01-18 09:00:00,
2013-01-18 04:05:00,8.8,-8.7,30.34,West,264,0.0,0.0,44,0.00,,,-99.99,Weather View 32 v60,2013-01-18 09:05:00,
2013-01-18 04:10:00,8.6,-8.8,30.34,West,264,0.0,0.0,44,0.00,,,-99.99,Weather View 32 v60,2013-01-18 09:10:00,
2013-01-18 04:20:00,8.6,-8.8,30.34,West,264,0.0,0.0,44,0.00,,,-99.99,Weather View 32 v60,2013-01-18 09:20:00,
2013-01-18 04:25:00,8.6,-8.8,30.34,West,264,0.0,0.0,44,0.00,,,-99.99,Weather View 32 v60,2013-01-18 09:25:00,
2013-01-18 04:30:00,8.4,-9.0,30.34,West,264,0.0,0.0,44,0.00,,,-99.99,Weather View 32 v60,2013-01-18 09:30:00,
2013-01-18 04:35:00,8.4,-9.0,30.34,West,264,0.0,0.0,44,0.00,,,-99.99,Weather View 32 v60,2013-01-18 09:35:00,
2013-01-18 04:40:00,8.2,-9.2,30.34,West,264,0.0,0.0,44,0.00,,,-99.99,Weather View 32 v60,2013-01-18 09:40:00,
2013-01-18 04:45:00,8.1,-9.3,30.34,West,264,0.0,0.0,44,0.00,,,-99.99,Weather View 32 v60,2013-01-18 09:45:00,
2013-01-18 04:55:00,7.9,-9.5,30.34,West,264,0.0,0.0,44,0.00,,,-99.99,Weather View 32 v60,2013-01-18 09:55:00,
2013-01-18 05:00:00,7.9,-9.5,30.34,West,264,0.0,0.0,44,0.00,,,-99.99,Weather View 32 v60,2013-01-18 10:00:00,
2013-01-18 05:05:00,7.7,-9.7,30.34,West,264,0.0,0.0,44,0.00,,,-99.99,Weather View 32 v60,2013-01-18 10:05:00,
2013-01-18 05:10:00,7.5,-9.8,30.34,West,264,0.0,0.0,44,0.00,,,-99.99,Weather View 32 v60,2013-01-18 10:10:00,
2013-01-18 05:15:00,7.2,-10.2,30.34,West,264,0.0,0.0,44,0.00,,,-99.99,Weather View 32 v60,2013-01-18 10:15:00,
2013-01-18 05:20:00,7.2,-10.2,30.34,West,264,0.0,0.0,44,0.00,,,-99.99,Weather View 32 v60,2013-01-18 10:20:00,
2013-01-18 05:25:00,7.2,-10.2,30.34,West,264,0.0,0.0,44,0.00,,,-99.99,Weather View 32 v60,2013-01-18 10:25:00,
2013-01-18 05:30:00,7.0,-10.3,30.34,West,264,0.0,0.0,44,0.00,,,-99.99,Weather View 32 v60,2013-01-18 10:30:00,
2013-01-18 05:35:00,7.0,-10.3,30.34,West,264,0.0,0.0,44,0.00,,,-99.99,Weather View 32 v60,2013-01-18 10:35:00,
2013-01-18 05:40:00,7.0,-10.3,30.34,West,264,0.0,0.0,44,0.00,,,-99.99,Weather View 32 v60,2013-01-18 10:40:00,
2013-01-18 05:45:00,6.8,-10.5,30.34,West,264,0.0,0.0,44,0.00,,,-99.99,Weather View 32 v60,2013-01-18 10:45:00,
2013-01-18 05:55:00,6.8,-10.5,30.34,West,264,0.0,0.0,44,0.00,,,-99.99,Weather View 32 v60,2013-01-18 10:55:00,
2013-01-18 06:00:00,6.6,-10.7,30.34,West,264,0.0,0.0,44,0.00,,,-99.99,Weather View 32 v60,2013-01-18 11:00:00,
2013-01-18 06:05:00,6.4,-10.8,30.34,West,264,0.0,0.0,44,0.00,,,-99.99,Weather View 32 v60,2013-01-18 11:05:00,
2013-01-18 06:10:00,6.4,-10.8,30.34,West,264,0.0,0.0,44,0.00,,,-99.99,Weather View 32 v60,2013-01-18 11:10:00,
2013-01-18 06:15:00,6.4,-10.8,30.34,West,264,0.0,0.0,44,0.00,,,-99.99,Weather View 32 v60,2013-01-18 11:15:00,
2013-01-18 06:20:00,6.4,-10.8,30.34,West,264,0.0,0.0,44,0.00,,,-99.99,Weather View 32 v60,2013-01-18 11:20:00,
2013-01-18 06:25:00,6.3,-11.0,30.34,West,264,0.0,0.0,44,0.00,,,-99.99,Weather View 32 v60,2013-01-18 11:25:00,
2013-01-18 06:30:00,6.3,-11.0,30.34,West,264,0.0,0.0,44,0.00,,,-99.99,Weather View 32 v60,2013-01-18 11:30:00,
2013-01-18 06:35:00,6.3,-11.0,30.34,West,264,0.0,0.0,44,0.00,,,-99.99,Weather View 32 v60,2013-01-18 11:35:00,
2013-01-18 06:40:00,6.3,-11.0,30.34,West,264,0.0,0.0,44,0.00,,,-99.99,Weather View 32 v60,2013-01-18 11:40:00,
2013-01-18 06:45:00,6.1,-11.2,30.34,West,264,0.0,0.0,44,0.00,,,-99.99,Weather View 32 v60,2013-01-18 11:45:00,
2013-01-18 06:50:00,6.1,-11.2,30.34,West,264,0.0,0.0,44,0.00,,,-99.99,Weather View 32 v60,2013-01-18 11:50:00,
2013-01-18 06:55:00,6.1,-11.2,30.34,West,264,0.0,0.0,44,0.00,,,-99.99,Weather View 32 v60,2013-01-18 11:55:00,
2013-01-18 07:00:00,6.1,-11.2,30.34,West,264,0.0,0.0,44,0.00,,,-99.99,Weather View 32 v60,2013-01-18 12:00:00,
2013-01-18 07:10:00,6.1,-11.2,30.34,West,264,0.0,0.0,44,0.00,,,-99.99,Weather View 32 v60,2013-01-18 12:10:00,
2013-01-18 07:15:00,6.1,-11.2,30.34,West,264,0.0,0.0,44,0.00,,,-99.99,Weather View 32 v60,2013-01-18 12:15:00,
2013-01-18 07:20:00,5.9,-11.3,30.34,West,264,0.0,0.0,44,0.00,,,-99.99,Weather View 32 v60,2013-01-18 12:20:00,
2013-01-18 07:25:00,5.9,-11.3,30.34,West,264,0.0,0.0,44,0.00,,,-99.99,Weather View 32 v60,2013-01-18 12:25:00,
2013-01-18 07:30:00,5.9,-11.3,30.34,West,264,0.0,0.0,44,0.00,,,-99.99,Weather View 32 v60,2013-01-18 12:30:00,
2013-01-18 07:35:00,5.7,-11.5,30.34,West,264,0.0,0.0,44,0.00,,,-99.99,Weather View 32 v60,2013-01-18 12:35:00,
2013-01-18 07:40:00,5.5,-11.6,30.34,West,264,0.0,0.0,44,0.00,,,-99.99,Weather View 32 v60,2013-01-18 12:40:00,
2013-01-18 07:50:00,5.4,-11.8,30.34,West,264,0.0,0.0,44,0.00,,,-99.99,Weather View 32 v60,2013-01-18 12:50:00,
2013-01-18 07:55:00,5.4,-11.8,30.34,West,264,0.0,0.0,44,0.00,,,-99.99,Weather View 32 v60,2013-01-18 12:55:00,
2013-01-18 08:00:00,5.2,-12.0,30.34,West,264,0.0,0.0,44,0.00,,,-99.99,Weather View 32 v60,2013-01-18 13:00:00,
2013-01-18 08:05:00,5.2,-12.0,30.34,West,264,0.0,0.0,44,0.00,,,-99.99,Weather View 32 v60,2013-01-18 13:05:00,
2013-01-18 08:10:00,5.2,-12.0,30.34,West,264,0.0,0.0,44,0.00,,,-99.99,Weather View 32 v60,2013-01-18 13:10:00,
2013-01-18 08:15:00,5.2,-12.0,30.34,West,264,0.0,0.0,44,0.00,,,-99.99,Weather View 32 v60,2013-01-18 13:15:00,
2013-01-18 08:20:00,5.2,-12.0,30.34,West,264,0.0,0.0,44,0.00,,,-99.99,Weather View 32 v60,2013-01-18 13:20:00,
2013-01-18 08:25:00,5.2,-12.0,30.31,West,264,0.0,0.0,44,0.00,,,-99.99,Weather View 32 v60,2013-01-18 13:25:00,
2013-01-18 08:30:00,5.2,-12.0,30.31,West,264,0.0,0.0,44,0.00,,,-99.99,Weather View 32 v60,2013-01-18 13:30:00,
2013-01-18 08:35:00,5.4,-11.8,30.31,West,264,0.0,0.0,44,0.00,,,-99.99,Weather View 32 v60,2013-01-18 13:35:00,
2013-01-18 08:40:00,5.5,-11.6,30.31,West,264,0.0,0.0,44,0.00,,,-99.99,Weather View 32 v60,2013-01-18 13:40:00,
2013-01-18 08:45:00,5.9,-11.3,30.31,West,264,0.0,0.0,44,0.00,,,-99.99,Weather View 32 v60,2013-01-18 13:45:00,
2013-01-18 08:50:00,6.3,-11.0,30.31,West,264,0.0,0.0,44,0.00,,,-99.99,Weather View 32 v60,2013-01-18 13:50:00,
2013-01-18 08:55:00,7.0,-10.3,30.31,SW,236,0.0,0.0,44,0.00,,,-99.99,Weather View 32 v60,2013-01-18 13:55:00,
2013-01-18 09:00:00,8.1,-9.3,30.31,SSE,166,0.0,0.0,44,0.00,,,-99.99,Weather View 32 v60,2013-01-18 14:00:00,
2013-01-18 09:05:00,8.8,-8.7,30.31,SSE,156,3.0,3.0,44,0.00,,,-99.99,Weather View 32 v60,2013-01-18 14:05:00,
2013-01-18 09:10:00,9.5,-8.0,30.31,SSE,152,0.0,3.0,44,0.00,,,-99.99,Weather View 32 v60,2013-01-18 14:10:00,
2013-01-18 09:15:00,10.2,-7.4,30.31,SSE,154,0.0,3.0,44,0.00,,,-99.99,Weather View 32 v60,2013-01-18 14:15:00,
2013-01-18 09:20:00,10.8,-6.9,30.31,SSE,152,0.0,3.0,44,0.00,,,-99.99,Weather View 32 v60,2013-01-18 14:20:00,
2013-01-18 09:25:00,11.1,-6.5,30.31,SSE,156,3.0,4.0,44,0.00,,,-99.99,Weather View 32 v60,2013-01-18 14:25:00,
2013-01-18 09:30:00,11.7,-6.0,30.31,SSE,159,0.0,4.0,44,0.00,,,-99.99,Weather View 32 v60,2013-01-18 14:30:00,
2013-01-18 09:35:00,12.0,-5.7,30.31,SSE,148,3.0,4.0,44,0.00,,,-99.99,Weather View 32 v60,2013-01-18 14:35:00,
2013-01-18 09:40:00,12.2,-5.5,30.34,SSE,156,0.0,4.0,44,0.00,,,-99.99,Weather View 32 v60,2013-01-18 14:40:00,
2013-01-18 09:45:00,12.6,-5.2,30.34,SSE,151,0.0,4.0,44,0.00,,,-99.99,Weather View 32 v60,2013-01-18 14:45:00,
2013-01-18 09:50:00,12.9,-4.9,30.34,SE,145,3.0,4.0,44,0.00,,,-99.99,Weather View 32 v60,2013-01-18 14:50:00,
2013-01-18 09:55:00,13.3,-4.6,30.31,SSE,148,0.0,4.0,44,0.00,,,-99.99,Weather View 32 v60,2013-01-18 14:55:00,
2013-01-18 10:00:00,13.6,-4.2,30.31,SSE,154,0.0,4.0,44,0.00,,,-99.99,Weather View 32 v60,2013-01-18 15:00:00,
2013-01-18 10:05:00,14.2,-0.2,30.31,SE,145,0.0,4.0,52,0.00,,,-99.99,Weather View 32 v60,2013-01-18 15:05:00,
2013-01-18 10:10:00,14.7,0.3,30.31,SSE,147,0.0,4.0,52,0.00,,,-99.99,Weather View 32 v60,2013-01-18 15:10:00,
2013-01-18 10:15:00,15.1,0.6,30.31,SSE,149,3.0,4.0,52,0.00,,,-99.99,Weather View 32 v60,2013-01-18 15:15:00,
2013-01-18 10:20:00,15.6,1.1,30.31,SW,219,4.0,5.0,52,0.00,,,-99.99,Weather View 32 v60,2013-01-18 15:20:00,
2013-01-18 10:25:00,16.0,1.0,30.31,SSW,193,2.0,5.0,51,0.00,,,-99.99,Weather View 32 v60,2013-01-18 15:25:00,
2013-01-18 10:30:00,16.5,1.1,30.31,South,169,0.0,5.0,50,0.00,,,-99.99,Weather View 32 v60,2013-01-18 15:30:00,
2013-01-18 10:35:00,16.7,0.9,30.31,SSE,167,3.0,5.0,49,0.00,,,-99.99,Weather View 32 v60,2013-01-18 15:35:00,
2013-01-18 10:40:00,17.1,0.7,30.31,South,174,0.0,6.0,48,0.00,,,-99.99,Weather View 32 v60,2013-01-18 15:40:00,
2013-01-18 10:45:00,17.4,1.1,30.31,SE,135,4.0,6.0,48,0.00,,,-99.99,Weather View 32 v60,2013-01-18 15:45:00,
2013-01-18 10:50:00,17.8,1.0,30.31,SSE,159,3.0,6.0,47,0.00,,,-99.99,Weather View 32 v60,2013-01-18 15:50:00,
2013-01-18 10:55:00,18.0,1.1,30.29,SSE,154,2.0,6.0,47,0.00,,,-99.99,Weather View 32 v60,2013-01-18 15:55:00,
2013-01-18 11:00:00,18.3,1.5,30.29,SSE,166,0.0,6.0,47,0.00,,,-99.99,Weather View 32 v60,2013-01-18 16:00:00,
2013-01-18 11:05:00,18.7,1.3,30.29,SE,142,4.0,6.0,46,0.00,,,-99.99,Weather View 32 v60,2013-01-18 16:05:00,
2013-01-18 11:10:00,18.9,1.5,30.29,SSW,195,0.0,6.0,46,0.00,,,-99.99,Weather View 32 v60,2013-01-18 16:10:00,
2013-01-18 11:15:00,19.2,1.8,30.29,SSE,166,0.0,6.0,46,0.00,,,-99.99,Weather View 32 v60,2013-01-18 16:15:00,
2013-01-18 11:20:00,19.6,1.7,30.29,SSE,166,4.0,6.0,45,0.00,,,-99.99,Weather View 32 v60,2013-01-18 16:20:00,
2013-01-18 11:25:00,19.8,1.8,30.29,SSE,153,4.0,6.0,45,0.00,,,-99.99,Weather View 32 v60,2013-01-18 16:25:00,
2013-01-18 11:30:00,19.8,1.8,30.29,SSW,212,3.0,6.0,45,0.00,,,-99.99,Weather View 32 v60,2013-01-18 16:30:00,
2013-01-18 11:35:00,19.9,2.0,30.29,SSE,155,4.0,6.0,45,0.00,,,-99.99,Weather View 32 v60,2013-01-18 16:35:00,
2013-01-18 11:40:00,20.1,2.7,30.26,South,187,0.0,6.0,46,0.00,,,-99.99,Weather View 32 v60,2013-01-18 16:40:00,
2013-01-18 11:45:00,20.1,2.7,30.26,SSE,164,6.0,6.0,46,0.00,,,-99.99,Weather View 32 v60,2013-01-18 16:45:00,
2013-01-18 11:50:00,20.3,2.8,30.26,SE,141,3.0,6.0,46,0.00,,,-99.99,Weather View 32 v60,2013-01-18 16:50:00,
2013-01-18 11:55:00,20.5,3.4,30.26,SSE,164,0.0,6.0,47,0.00,,,-99.99,Weather View 32 v60,2013-01-18 16:55:00,
2013-01-18 12:00:00,20.7,3.6,30.26,SSE,150,6.0,8.0,47,0.00,,,-99.99,Weather View 32 v60,2013-01-18 17:00:00,
2013-01-18 12:05:00,20.8,3.8,30.26,WNW,289,4.0,8.0,47,0.00,,,-99.99,Weather View 32 v60,2013-01-18 17:05:00,
2013-01-18 12:10:00,21.0,3.9,30.23,South,174,6.0,8.0,47,0.00,,,-99.99,Weather View 32 v60,2013-01-18 17:10:00,
2013-01-18 12:15:00,21.2,4.1,30.23,East,95,7.0,8.0,47,0.00,,,-99.99,Weather View 32 v60,2013-01-18 17:15:00,
2013-01-18 12:20:00,21.2,4.1,30.23,South,175,4.0,8.0,47,0.00,,,-99.99,Weather View 32 v60,2013-01-18 17:20:00,
2013-01-18 12:25:00,21.4,3.8,30.20,SSE,163,0.0,8.0,46,0.00,,,-99.99,Weather View 32 v60,2013-01-18 17:25:00,
2013-01-18 12:30:00,21.6,4.0,30.20,South,173,3.0,8.0,46,0.00,,,-99.99,Weather View 32 v60,2013-01-18 17:30:00,
2013-01-18 12:35:00,21.7,4.1,30.20,SSE,158,3.0,8.0,46,0.00,,,-99.99,Weather View 32 v60,2013-01-18 17:35:00,
2013-01-18 12:40:00,21.9,4.3,30.17,SSE,151,3.0,8.0,46,0.00,,,-99.99,Weather View 32 v60,2013-01-18 17:40:00,
2013-01-18 12:45:00,21.9,4.3,30.17,South,184,3.0,8.0,46,0.00,,,-99.99,Weather View 32 v60,2013-01-18 17:45:00,
2013-01-18 12:55:00,22.5,5.3,30.17,SSE,168,3.0,8.0,47,0.00,,,-99.99,Weather View 32 v60,2013-01-18 17:55:00,
2013-01-18 13:00:00,22.8,5.6,30.17,SSE,155,3.0,8.0,47,0.00,,,-99.99,Weather View 32 v60,2013-01-18 18:00:00,
2013-01-18 13:05:00,23.2,5.9,30.17,South,181,4.0,8.0,47,0.00,,,-99.99,Weather View 32 v60,2013-01-18 18:05:00,
2013-01-18 13:10:00,23.5,6.3,30.14,SSE,153,3.0,8.0,47,0.00,,,-99.99,Weather View 32 v60,2013-01-18 18:10:00,
2013-01-18 13:20:00,23.9,6.1,30.11,SSE,150,3.0,8.0,46,0.00,,,-99.99,Weather View 32 v60,2013-01-18 18:20:00,
2013-01-18 13:25:00,24.3,6.4,30.11,South,170,3.0,8.0,46,0.00,,,-99.99,Weather View 32 v60,2013-01-18 18:25:00,
2013-01-18 13:30:00,24.4,6.6,30.11,SE,140,3.0,8.0,46,0.00,,,-99.99,Weather View 32 v60,2013-01-18 18:30:00,
2013-01-18 13:35:00,24.6,6.8,30.11,SSW,197,4.0,8.0,46,0.00,,,-99.99,Weather View 32 v60,2013-01-18 18:35:00,
2013-01-18 13:45:00,25.3,7.0,30.11,SSE,162,3.0,6.0,45,0.00,,,-99.99,Weather View 32 v60,2013-01-18 18:45:00,
2013-01-18 13:50:00,25.5,7.1,30.11,SSW,211,5.0,8.0,45,0.00,,,-99.99,Weather View 32 v60,2013-01-18 18:50:00,
2013-01-18 13:55:00,25.7,7.3,30.08,SE,131,4.0,8.0,45,0.00,,,-99.99,Weather View 32 v60,2013-01-18 18:55:00,
2013-01-18 14:04:00,26.1,7.1,30.08,East,89,4.0,8.0,44,0.00,,,-99.99,Weather View 32 v60,2013-01-18 19:04:00,
2013-01-18 14:10:00,26.8,7.3,30.05,SSW,209,3.0,8.0,43,0.00,,,-99.99,Weather View 32 v60,2013-01-18 19:10:00,
2013-01-18 14:20:00,27.3,7.2,30.05,WNW,288,5.0,9.0,42,0.00,,,-99.99,Weather View 32 v60,2013-01-18 19:20:00,
2013-01-18 14:25:00,27.5,7.4,30.05,SE,135,4.0,9.0,42,0.00,,,-99.99,Weather View 32 v60,2013-01-18 19:25:00,
2013-01-18 14:30:00,27.9,7.2,30.05,South,170,4.0,9.0,41,0.00,,,-99.99,Weather View 32 v60,2013-01-18 19:30:00,
2013-01-18 14:35:00,28.0,7.4,30.05,South,170,4.0,9.0,41,0.00,,,-99.99,Weather View 32 v60,2013-01-18 19:35:00,
2013-01-18 14:40:00,28.4,7.7,30.05,SSW,198,3.0,10.0,41,0.00,,,-99.99,Weather View 32 v60,2013-01-18 19:40:00,
2013-01-18 14:45:00,28.6,6.2,30.05,SE,136,4.0,10.0,38,0.00,,,-99.99,Weather View 32 v60,2013-01-18 19:45:00,
2013-01-18 14:50:00,28.8,6.3,30.05,SSE,154,7.0,10.0,38,0.00,,,-99.99,Weather View 32 v60,2013-01-18 19:50:00,
2013-01-18 14:55:00,28.9,5.9,30.02,SSE,153,3.0,10.0,37,0.00,,,-99.99,Weather View 32 v60,2013-01-18 19:55:00,
2013-01-18 15:00:00,29.3,5.6,30.02,ESE,110,4.0,11.0,36,0.00,,,-99.99,Weather View 32 v60,2013-01-18 20:00:00,
2013-01-18 15:05:00,29.5,5.8,30.02,SE,135,4.0,11.0,36,0.00,,,-99.99,Weather View 32 v60,2013-01-18 20:05:00,
2013-01-18 15:10:00,29.7,6.0,29.99,SSW,202,3.0,11.0,36,0.00,,,-99.99,Weather View 32 v60,2013-01-18 20:10:00,
2013-01-18 15:15:00,29.8,6.1,29.99,SSE,164,4.0,11.0,36,0.00,,,-99.99,Weather View 32 v60,2013-01-18 20:15:00,
2013-01-18 15:20:00,30.0,6.3,29.99,SSW,206,4.0,11.0,36,0.00,,,-99.99,Weather View 32 v60,2013-01-18 20:20:00,
2013-01-18 15:25:00,30.2,6.4,29.99,SW,221,3.0,11.0,36,0.00,,,-99.99,Weather View 32 v60,2013-01-18 20:25:00,
2013-01-18 15:30:00,30.6,6.1,29.99,SSW,206,4.0,11.0,35,0.00,,,-99.99,Weather View 32 v60,2013-01-18 20:30:00,
2013-01-18 15:35:00,30.7,6.3,29.99,SSW,207,5.0,11.0,35,0.00,,,-99.99,Weather View 32 v60,2013-01-18 20:35:00,
2013-01-18 15:40:00,30.7,6.3,29.96,South,175,3.0,11.0,35,0.00,,,-99.99,Weather View 32 v60,2013-01-18 20:40:00,
2013-01-18 15:45:00,30.7,6.3,29.96,SSE,159,4.0,11.0,35,0.00,,,-99.99,Weather View 32 v60,2013-01-18 20:45:00,
2013-01-18 15:50:00,30.9,7.1,29.96,South,186,2.0,11.0,36,0.00,,,-99.99,Weather View 32 v60,2013-01-18 20:50:00,
2013-01-18 15:55:00,30.9,6.5,29.96,SW,221,6.0,11.0,35,0.00,,,-99.99,Weather View 32 v60,2013-01-18 20:55:00,
2013-01-18 16:00:00,31.1,7.2,29.96,South,185,2.0,11.0,36,0.00,,,-99.99,Weather View 32 v60,2013-01-18 21:00:00,
2013-01-18 16:05:00,31.3,7.4,29.96,SSE,154,5.0,10.0,36,0.00,,,-99.99,Weather View 32 v60,2013-01-18 21:05:00,
2013-01-18 16:15:00,31.5,8.2,29.96,SSW,195,3.0,14.0,37,0.00,,,-99.99,Weather View 32 v60,2013-01-18 21:15:00,
2013-01-18 16:25:00,32.0,8.6,29.93,West,265,3.0,14.0,37,0.00,,,-99.99,Weather View 32 v60,2013-01-18 21:25:00,
2013-01-18 16:30:00,32.2,9.4,29.93,West,261,3.0,14.0,38,0.00,,,-99.99,Weather View 32 v60,2013-01-18 21:30:00,
2013-01-18 16:35:00,32.4,9.6,29.93,SSW,209,2.0,14.0,38,0.00,,,-99.99,Weather View 32 v60,2013-01-18 21:35:00,
2013-01-18 16:40:00,32.5,9.7,29.93,WSW,239,4.0,14.0,38,0.00,,,-99.99,Weather View 32 v60,2013-01-18 21:40:00,
2013-01-18 16:45:00,32.5,9.7,29.93,SSW,200,3.0,14.0,38,0.00,,,-99.99,Weather View 32 v60,2013-01-18 21:45:00,
2013-01-18 16:50:00,32.7,9.9,29.93,SSW,213,6.0,14.0,38,0.00,,,-99.99,Weather View 32 v60,2013-01-18 21:50:00,
2013-01-18 16:55:00,32.9,10.6,29.93,SE,141,5.0,14.0,39,0.00,,,-99.99,Weather View 32 v60,2013-01-18 21:55:00,
2013-01-18 17:00:00,32.9,10.6,29.93,SE,144,6.0,14.0,39,0.00,,,-99.99,Weather View 32 v60,2013-01-18 22:00:00,
2013-01-18 17:05:00,33.1,10.2,29.93,South,175,3.0,14.0,38,0.00,,,-99.99,Weather View 32 v60,2013-01-18 22:05:00,
2013-01-18 17:10:00,33.1,10.2,29.90,NNE,21,4.0,10.0,38,0.00,,,-99.99,Weather View 32 v60,2013-01-18 22:10:00,
2013-01-18 17:15:00,32.9,10.0,29.90,SSE,148,4.0,10.0,38,0.00,,,-99.99,Weather View 32 v60,2013-01-18 22:15:00,
2013-01-18 17:25:00,32.9,10.6,29.90,SW,230,4.0,10.0,39,0.00,,,-99.99,Weather View 32 v60,2013-01-18 22:25:00,
2013-01-18 17:30:00,32.9,10.6,29.90,South,191,4.0,10.0,39,0.00,,,-99.99,Weather View 32 v60,2013-01-18 22:30:00,
2013-01-18 17:35:00,32.9,10.6,29.90,SSW,202,0.0,10.0,39,0.00,,,-99.99,Weather View 32 v60,2013-01-18 22:35:00,
2013-01-18 17:40:00,32.9,11.2,29.90,South,172,3.0,10.0,40,0.00,,,-99.99,Weather View 32 v60,2013-01-18 22:40:00,
2013-01-18 17:45:00,32.9,11.2,29.90,SE,143,3.0,9.0,40,0.00,,,-99.99,Weather View 32 v60,2013-01-18 22:45:00,
2013-01-18 17:50:00,32.9,11.2,29.90,SE,134,3.0,9.0,40,0.00,,,-99.99,Weather View 32 v60,2013-01-18 22:50:00,
2013-01-18 17:55:00,32.9,11.2,29.90,South,186,3.0,9.0,40,0.00,,,-99.99,Weather View 32 v60,2013-01-18 22:55:00,
2013-01-18 18:00:00,32.9,11.2,29.90,SSW,200,0.0,9.0,40,0.00,,,-99.99,Weather View 32 v60,2013-01-18 23:00:00,
2013-01-18 18:06:00,32.9,11.2,29.90,SE,136,4.0,9.0,40,0.00,,,-99.99,Weather View 32 v60,2013-01-18 23:06:00,
2013-01-18 18:15:00,32.7,11.0,29.90,WSW,241,6.0,8.0,40,0.00,,,-99.99,Weather View 32 v60,2013-01-18 23:15:00,
2013-01-18 18:20:00,32.7,11.0,29.90,South,187,6.0,9.0,40,0.00,,,-99.99,Weather View 32 v60,2013-01-18 23:20:00,
2013-01-18 18:25:00,32.7,11.0,29.90,West,259,7.0,9.0,40,0.00,,,-99.99,Weather View 32 v60,2013-01-18 23:25:00,
2013-01-18 18:30:00,32.9,11.2,29.90,SSE,159,4.0,9.0,40,0.00,,,-99.99,Weather View 32 v60,2013-01-18 23:30:00,
2013-01-18 18:35:00,32.9,11.2,29.90,West,274,4.0,9.0,40,0.00,,,-99.99,Weather View 32 v60,2013-01-18 23:35:00,
2013-01-18 18:45:00,32.9,11.8,29.90,WSW,244,6.0,15.0,41,0.00,,,-99.99,Weather View 32 v60,2013-01-18 23:45:00,
2013-01-18 18:50:00,33.1,11.9,29.90,South,180,3.0,15.0,41,0.00,,,-99.99,Weather View 32 v60,2013-01-18 23:50:00,
2013-01-18 18:55:00,33.1,11.9,29.90,South,170,0.0,15.0,41,0.00,,,-99.99,Weather View 32 v60,2013-01-18 23:55:00,
2013-01-18 19:00:00,33.1,11.9,29.90,SSW,198,3.0,15.0,41,0.00,,,-99.99,Weather View 32 v60,2013-01-19 00:00:00,
2013-01-18 19:05:00,33.1,11.9,29.90,SSW,204,0.0,15.0,41,0.00,,,-99.99,Weather View 32 v60,2013-01-19 00:05:00,
2013-01-18 19:10:00,33.1,11.9,29.90,SW,217,0.0,15.0,41,0.00,,,-99.99,Weather View 32 v60,2013-01-19 00:10:00,
2013-01-18 19:15:00,33.1,11.9,29.90,South,182,3.0,15.0,41,0.00,,,-99.99,Weather View 32 v60,2013-01-19 00:15:00,
2013-01-18 19:20:00,33.3,12.1,29.90,SSE,157,4.0,15.0,41,0.00,,,-99.99,Weather View 32 v60,2013-01-19 00:20:00,
2013-01-18 19:25:00,33.3,12.1,29.90,SSE,158,4.0,15.0,41,0.00,,,-99.99,Weather View 32 v60,2013-01-19 00:25:00,
2013-01-18 19:35:00,33.3,12.1,29.90,South,185,0.0,15.0,41,0.00,,,-99.99,Weather View 32 v60,2013-01-19 00:35:00,
2013-01-18 19:40:00,33.3,12.1,29.90,SSW,196,4.0,9.0,41,0.00,,,-99.99,Weather View 32 v60,2013-01-19 00:40:00,
2013-01-18 19:50:00,33.3,12.1,29.90,South,185,0.0,9.0,41,0.00,,,-99.99,Weather View 32 v60,2013-01-19 00:50:00,
2013-01-18 19:55:00,33.3,12.1,29.90,South,185,3.0,9.0,41,0.00,,,-99.99,Weather View 32 v60,2013-01-19 00:55:00,
2013-01-18 20:00:00,33.4,12.2,29.90,WSW,239,6.0,9.0,41,0.00,,,-99.99,Weather View 32 v60,2013-01-19 01:00:00,
2013-01-18 20:05:00,33.4,12.2,29.90,South,186,4.0,9.0,41,0.00,,,-99.99,Weather View 32 v60,2013-01-19 01:05:00,
2013-01-18 20:10:00,33.6,12.4,29.90,South,169,3.0,9.0,41,0.00,,,-99.99,Weather View 32 v60,2013-01-19 01:10:00,
2013-01-18 20:20:00,33.6,12.4,29.90,SSW,196,0.0,8.0,41,0.00,,,-99.99,Weather View 32 v60,2013-01-19 01:20:00,
2013-01-18 20:25:00,33.6,12.4,29.87,West,262,3.0,8.0,41,0.00,,,-99.99,Weather View 32 v60,2013-01-19 01:25:00,
2013-01-18 20:30:00,33.8,12.0,29.87,East,94,4.0,8.0,40,1.02,,,-99.99,Weather View 32 v60,2013-01-19 01:30:00,
2013-01-18 20:35:00,33.8,12.0,29.87,SSW,211,3.0,8.0,40,1.02,,,-99.99,Weather View 32 v60,2013-01-19 01:35:00,
2013-01-18 20:45:00,33.8,12.0,29.87,WSW,244,3.0,8.0,40,1.02,,,-99.99,Weather View 32 v60,2013-01-19 01:45:00,
2013-01-18 20:50:00,33.8,12.0,29.87,SW,222,4.0,8.0,40,1.02,,,-99.99,Weather View 32 v60,2013-01-19 01:50:00,
2013-01-18 21:00:00,34.0,12.2,29.87,SW,221,3.0,7.0,40,1.02,,,-99.99,Weather View 32 v60,2013-01-19 02:00:00,
2013-01-18 21:05:00,33.8,12.0,29.87,SW,220,3.0,8.0,40,1.02,,,-99.99,Weather View 32 v60,2013-01-19 02:05:00,
2013-01-18 21:10:00,33.8,12.0,29.87,South,186,0.0,8.0,40,1.02,,,-99.99,Weather View 32 v60,2013-01-19 02:10:00,
2013-01-18 21:15:00,33.8,12.0,29.87,SW,217,0.0,8.0,40,1.02,,,-99.99,Weather View 32 v60,2013-01-19 02:15:00,
2013-01-18 21:20:00,33.8,12.0,29.87,WSW,252,2.0,8.0,40,1.02,,,-99.99,Weather View 32 v60,2013-01-19 02:20:00,
2013-01-18 21:25:00,33.8,12.0,29.84,South,190,3.0,8.0,40,1.02,,,-99.99,Weather View 32 v60,2013-01-19 02:25:00,
2013-01-18 21:30:00,33.8,12.0,29.84,South,173,3.0,8.0,40,0.00,,,-99.99,Weather View 32 v60,2013-01-19 02:30:00,
2013-01-18 21:40:00,33.6,11.8,29.84,South,191,0.0,8.0,40,0.00,,,-99.99,Weather View 32 v60,2013-01-19 02:40:00,
2013-01-18 21:45:00,33.6,11.8,29.84,South,190,3.0,8.0,40,0.00,,,-99.99,Weather View 32 v60,2013-01-19 02:45:00,
2013-01-18 21:50:00,33.6,11.8,29.84,ESE,118,0.0,8.0,40,0.00,,,-99.99,Weather View 32 v60,2013-01-19 02:50:00,
2013-01-18 21:55:00,33.6,11.8,29.84,SSW,192,0.0,8.0,40,0.00,,,-99.99,Weather View 32 v60,2013-01-19 02:55:00,
2013-01-18 22:00:00,33.8,12.0,29.84,South,191,4.0,8.0,40,0.00,,,-99.99,Weather View 32 v60,2013-01-19 03:00:00,
2013-01-18 22:05:00,33.8,12.0,29.84,WSW,238,4.0,8.0,40,0.00,,,-99.99,Weather View 32 v60,2013-01-19 03:05:00,
2013-01-18 22:10:00,33.8,12.0,29.84,SW,229,5.0,8.0,40,0.00,,,-99.99,Weather View 32 v60,2013-01-19 03:10:00,
2013-01-18 22:15:00,33.8,12.0,29.84,SSW,196,0.0,8.0,40,0.00,,,-99.99,Weather View 32 v60,2013-01-19 03:15:00,
2013-01-18 22:25:00,34.0,12.2,29.84,SSW,197,6.0,8.0,40,0.00,,,-99.99,Weather View 32 v60,2013-01-19 03:25:00,
2013-01-18 22:30:00,34.2,12.3,29.84,South,176,0.0,8.0,40,0.00,,,-99.99,Weather View 32 v60,2013-01-19 03:30:00,
2013-01-18 22:35:00,34.2,11.8,29.84,South,171,3.0,8.0,39,0.00,,,-99.99,Weather View 32 v60,2013-01-19 03:35:00,
2013-01-18 22:40:00,34.2,11.8,29.81,SSE,157,3.0,8.0,39,0.00,,,-99.99,Weather View 32 v60,2013-01-19 03:40:00,
2013-01-18 22:45:00,34.2,11.8,29.81,SSW,201,2.0,8.0,39,0.00,,,-99.99,Weather View 32 v60,2013-01-19 03:45:00,
2013-01-18 22:50:00,34.2,11.8,29.81,South,173,3.0,8.0,39,0.00,,,-99.99,Weather View 32 v60,2013-01-19 03:50:00,
2013-01-18 22:55:00,34.2,11.8,29.81,SSW,209,2.0,8.0,39,0.00,,,-99.99,Weather View 32 v60,2013-01-19 03:55:00,
2013-01-18 23:05:00,34.0,11.6,29.81,SSW,204,4.0,8.0,39,0.00,,,-99.99,Weather View 32 v60,2013-01-19 04:05:00,
2013-01-18 23:10:00,34.0,11.6,29.81,SSW,201,0.0,8.0,39,0.00,,,-99.99,Weather View 32 v60,2013-01-19 04:10:00,
2013-01-18 23:20:00,33.8,11.4,29.81,SSW,195,0.0,8.0,39,0.00,,,-99.99,Weather View 32 v60,2013-01-19 04:20:00,
2013-01-18 23:25:00,33.8,11.4,29.81,South,177,3.0,8.0,39,0.00,,,-99.99,Weather View 32 v60,2013-01-19 04:25:00,
2013-01-18 23:30:00,33.8,12.0,29.81,SSW,204,0.0,8.0,40,0.00,,,-99.99,Weather View 32 v60,2013-01-19 04:30:00,
2013-01-18 23:35:00,33.6,11.8,29.81,SSW,195,0.0,8.0,40,0.00,,,-99.99,Weather View 32 v60,2013-01-19 04:35:00,
2013-01-18 23:40:00,33.6,11.8,29.81,SW,228,3.0,8.0,40,0.00,,,-99.99,Weather View 32 v60,2013-01-19 04:40:00,
2013-01-18 23:50:00,33.4,11.7,29.81,SW,219,4.0,8.0,40,0.00,,,-99.99,Weather View 32 v60,2013-01-19 04:50:00,
2013-01-18 23:55:00,33.4,11.7,29.81,South,177,2.0,7.0,40,0.00,,,-99.99,Weather View 32 v60,2013-01-19 04:55:00,